createdAt,value
2018-08-30T00:01:10.841Z,58.00
2018-08-30T00:03:42.027Z,57.96
2018-08-30T00:06:12.832Z,57.77
2018-08-30T00:08:44.197Z,57.50
2018-08-30T00:11:14.951Z,57.64
2018-08-30T00:13:46.130Z,57.37
2018-08-30T00:16:17.411Z,57.05
2018-08-30T00:18:48.931Z,57.07
2018-08-30T00:21:18.927Z,57.09
2018-08-30T00:23:51.096Z,57.45
2018-08-30T00:26:20.974Z,57.43
2018-08-30T00:28:52.162Z,57.42
2018-08-30T00:31:22.068Z,57.54
2018-08-30T00:33:53.147Z,58.16
2018-08-30T00:36:23.905Z,58.78
2018-08-30T00:38:54.910Z,59.47
2018-08-30T00:41:25.884Z,58.90
2018-08-30T00:43:57.287Z,58.91
2018-08-30T00:46:27.950Z,59.83
2018-08-30T00:48:59.052Z,60.09
2018-08-30T00:51:29.836Z,60.11
2018-08-30T00:54:01.312Z,60.33
2018-08-30T00:56:31.976Z,60.63
2018-08-30T00:59:03.131Z,60.36
2018-08-30T01:01:33.857Z,60.73
2018-08-30T01:04:05.075Z,62.17
2018-08-30T01:06:35.793Z,61.77
2018-08-30T01:09:08.246Z,62.23
2018-08-30T01:11:38.319Z,61.89
2018-08-30T01:14:08.976Z,62.96
2018-08-30T01:16:39.930Z,62.53
2018-08-30T01:19:10.969Z,63.68
2018-08-30T01:21:42.576Z,63.12
2018-08-30T01:24:12.688Z,63.09
2018-08-30T01:26:44.340Z,62.84
2018-08-30T01:29:15.077Z,62.77
2018-08-30T01:31:45.123Z,63.37
2018-08-30T01:34:16.151Z,62.65
2018-08-30T01:36:46.871Z,62.14
2018-08-30T01:39:18.114Z,61.80
2018-08-30T01:41:48.890Z,61.55
2018-08-30T01:44:20.225Z,61.09
2018-08-30T01:46:51.229Z,61.52
2018-08-30T01:49:22.110Z,61.28
2018-08-30T01:51:52.874Z,61.45
2018-08-30T01:54:24.065Z,60.99
2018-08-30T01:56:54.924Z,61.12
2018-08-30T01:59:26.096Z,60.53
2018-08-30T02:01:56.853Z,60.31
2018-08-30T02:04:28.067Z,60.71
2018-08-30T02:06:58.091Z,60.34
2018-08-30T02:09:29.208Z,60.13
2018-08-30T02:12:00.300Z,59.83
2018-08-30T02:14:31.230Z,59.94
2018-08-30T02:17:02.141Z,59.94
2018-08-30T02:19:33.677Z,59.78
2018-08-30T02:22:03.656Z,60.03
2018-08-30T02:24:35.465Z,59.46
2018-08-30T02:27:06.029Z,59.77
2018-08-30T02:29:37.236Z,60.02
2018-08-30T02:32:07.408Z,59.33
2018-08-30T02:34:38.673Z,60.01
2018-08-30T02:37:08.609Z,59.59
2018-08-30T02:39:39.910Z,59.81
2018-08-30T02:42:10.865Z,59.79
2018-08-30T02:44:42.166Z,59.92
2018-08-30T02:47:12.868Z,59.79
2018-08-30T02:49:44.097Z,59.85
2018-08-30T02:52:14.905Z,60.12
2018-08-30T02:54:46.089Z,59.77
2018-08-30T02:57:16.789Z,59.59
2018-08-30T02:59:48.041Z,59.99
2018-08-30T03:02:18.846Z,59.82
2018-08-30T03:04:50.088Z,59.67
2018-08-30T03:07:20.815Z,59.89
2018-08-30T03:09:52.124Z,59.76
2018-08-30T03:12:22.970Z,60.19
2018-08-30T03:15:04.608Z,60.06
2018-08-30T03:17:34.887Z,59.92
2018-08-30T03:20:06.625Z,60.01
2018-08-30T03:22:37.389Z,59.89
2018-08-30T03:25:07.895Z,59.85
2018-08-30T03:27:37.789Z,60.01
2018-08-30T03:30:09.215Z,60.04
2018-08-30T03:32:39.257Z,60.17
2018-08-30T03:35:09.855Z,60.03
2018-08-30T03:37:39.658Z,60.04
2018-08-30T03:40:09.651Z,60.09
2018-08-30T03:42:39.604Z,60.25
2018-08-30T03:45:09.490Z,60.32
2018-08-30T03:47:39.718Z,60.53
2018-08-30T03:50:09.657Z,60.52
2018-08-30T03:52:39.629Z,60.23
2018-08-30T03:55:09.680Z,60.35
2018-08-30T03:57:40.670Z,60.54
2018-08-30T04:00:12.479Z,60.50
2018-08-30T04:02:43.357Z,60.23
2018-08-30T04:05:14.084Z,60.64
2018-08-30T04:07:45.166Z,60.48
2018-08-30T04:10:16.040Z,60.67
2018-08-30T04:12:46.869Z,60.64
2018-08-30T04:15:18.326Z,60.49
2018-08-30T04:17:48.957Z,60.64
2018-08-30T04:20:20.667Z,60.85
2018-08-30T04:22:50.896Z,60.58
2018-08-30T04:25:22.034Z,60.99
2018-08-30T04:27:52.953Z,60.80
2018-08-30T04:30:25.045Z,61.01
2018-08-30T04:32:54.888Z,61.09
2018-08-30T04:35:26.050Z,61.79
2018-08-30T04:37:56.969Z,62.40
2018-08-30T04:40:28.053Z,63.74
2018-08-30T04:42:58.758Z,64.84
2018-08-30T04:45:30.025Z,65.87
2018-08-30T04:48:00.893Z,66.01
2018-08-30T04:50:32.044Z,66.60
2018-08-30T04:53:02.752Z,70.13
2018-08-30T04:55:33.817Z,69.37
2018-08-30T04:58:04.749Z,70.34
2018-08-30T05:00:35.768Z,70.48
2018-08-30T05:03:06.589Z,72.35
2018-08-30T05:05:37.766Z,73.01
2018-08-30T05:08:09.581Z,72.39
2018-08-30T05:10:39.672Z,73.48
2018-08-30T05:13:10.500Z,73.29
2018-08-30T05:15:42.085Z,74.15
2018-08-30T05:18:12.763Z,75.65
2018-08-30T05:20:43.851Z,76.05
2018-08-30T05:23:15.027Z,75.53
2018-08-30T05:25:46.050Z,74.89
2018-08-30T05:28:16.730Z,76.33
2018-08-30T05:30:47.857Z,76.60
2018-08-30T05:33:18.610Z,75.15
2018-08-30T05:35:50.197Z,76.67
2018-08-30T05:38:20.977Z,77.83
2018-08-30T05:40:51.984Z,78.48
2018-08-30T05:43:22.768Z,76.83
2018-08-30T05:45:53.885Z,78.36
2018-08-30T05:48:25.014Z,75.82
2018-08-30T05:50:56.177Z,75.15
2018-08-30T05:53:26.725Z,75.70
2018-08-30T05:55:57.802Z,76.44
2018-08-30T05:58:28.892Z,76.78
2018-08-30T06:01:00.320Z,75.33
2018-08-30T06:03:30.784Z,75.11
2018-08-30T06:06:02.087Z,75.28
2018-08-30T06:08:32.821Z,74.60
2018-08-30T06:11:03.776Z,73.87
2018-08-30T06:13:34.548Z,74.35
2018-08-30T06:16:06.117Z,73.45
2018-08-30T06:18:37.135Z,73.50
2018-08-30T06:21:08.489Z,73.30
2018-08-30T06:23:39.177Z,72.49
2018-08-30T06:26:10.142Z,72.12
2018-08-30T06:28:40.748Z,71.81
2018-08-30T06:31:11.866Z,72.40
2018-08-30T06:33:42.679Z,71.96
2018-08-30T06:36:13.875Z,71.16
2018-08-30T06:38:44.865Z,71.02
2018-08-30T06:41:16.029Z,70.97
2018-08-30T06:43:48.643Z,69.97
2018-08-30T06:46:18.725Z,70.18
2018-08-30T06:48:48.679Z,70.03
2018-08-30T06:51:19.790Z,69.61
2018-08-30T06:53:50.808Z,69.01
2018-08-30T06:56:21.875Z,68.86
2018-08-30T06:58:52.686Z,68.36
2018-08-30T07:01:23.635Z,68.22
2018-08-30T07:03:54.437Z,67.44
2018-08-30T07:06:26.025Z,67.38
2018-08-30T07:08:55.804Z,67.57
2018-08-30T07:11:26.806Z,67.12
2018-08-30T07:13:57.556Z,66.56
2018-08-30T07:16:29.077Z,65.93
2018-08-30T07:18:59.771Z,65.20
2018-08-30T07:21:31.098Z,65.67
2018-08-30T07:24:02.750Z,64.50
2018-08-30T07:26:32.748Z,63.73
2018-08-30T07:29:03.536Z,63.45
2018-08-30T07:31:35.349Z,63.45
2018-08-30T07:34:06.272Z,62.95
2018-08-30T07:36:37.365Z,63.11
2018-08-30T07:39:10.701Z,62.56
2018-08-30T07:41:41.043Z,62.17
2018-08-30T07:44:12.178Z,62.10
2018-08-30T07:46:43.168Z,61.79
2018-08-30T07:49:13.518Z,59.71
2018-08-30T07:51:43.795Z,58.02
2018-08-30T07:54:15.373Z,58.12
2018-08-30T07:56:45.446Z,58.36
2018-08-30T07:59:15.852Z,57.60
2018-08-30T08:01:46.869Z,56.96
2018-08-30T08:04:17.581Z,57.35
2018-08-30T08:06:49.097Z,56.88
2018-08-30T08:09:19.885Z,56.31
2018-08-30T08:11:51.234Z,56.40
2018-08-30T08:14:21.692Z,55.85
2018-08-30T08:16:52.719Z,55.88
2018-08-30T08:19:23.444Z,55.99
2018-08-30T08:21:55.325Z,55.61
2018-08-30T08:24:26.110Z,55.45
2018-08-30T08:26:57.102Z,54.25
2018-08-30T08:29:27.672Z,54.88
2018-08-30T08:31:59.203Z,54.89
2018-08-30T08:34:29.737Z,53.14
2018-08-30T08:37:00.769Z,53.87
2018-08-30T08:39:31.585Z,53.52
2018-08-30T08:42:03.100Z,52.54
2018-08-30T08:44:33.687Z,51.99
2018-08-30T08:47:04.972Z,51.95
2018-08-30T08:49:35.985Z,51.87
2018-08-30T08:52:07.237Z,51.08
2018-08-30T08:54:37.793Z,50.42
2018-08-30T08:57:09.087Z,49.79
2018-08-30T08:59:39.608Z,49.61
2018-08-30T09:02:10.763Z,49.49
2018-08-30T09:04:41.513Z,48.93
2018-08-30T09:07:14.324Z,48.47
2018-08-30T09:09:44.418Z,47.90
2018-08-30T09:12:15.126Z,47.37
2018-08-30T09:14:45.724Z,47.13
2018-08-30T09:17:16.828Z,47.14
2018-08-30T09:19:47.939Z,46.20
2018-08-30T09:22:19.147Z,44.60
2018-08-30T09:24:49.640Z,44.53
2018-08-30T09:27:20.903Z,45.31
2018-08-30T09:29:51.960Z,45.22
2018-08-30T09:32:23.295Z,44.98
2018-08-30T09:34:54.026Z,44.22
2018-08-30T09:37:25.001Z,43.70
2018-08-30T09:39:55.892Z,44.32
2018-08-30T09:42:26.956Z,43.86
2018-08-30T09:44:57.677Z,43.88
2018-08-30T09:47:28.665Z,42.87
2018-08-30T09:49:59.445Z,42.58
2018-08-30T09:52:30.873Z,42.00
2018-08-30T09:55:01.611Z,42.72
2018-08-30T09:57:33.033Z,42.07
2018-08-30T10:00:03.748Z,42.12
2018-08-30T10:02:36.544Z,41.59
2018-08-30T10:05:06.309Z,40.59
2018-08-30T10:07:36.813Z,41.78
2018-08-30T10:10:08.428Z,40.20
2018-08-30T10:12:39.122Z,39.89
2018-08-30T10:15:10.103Z,40.78
2018-08-30T10:17:40.661Z,40.72
2018-08-30T10:20:11.944Z,39.27
2018-08-30T10:22:42.807Z,39.79
2018-08-30T10:25:13.857Z,40.41
2018-08-30T10:27:44.898Z,39.29
2018-08-30T10:30:16.217Z,39.56
2018-08-30T10:32:46.711Z,39.56
2018-08-30T10:35:17.657Z,39.65
2018-08-30T10:37:48.448Z,38.42
2018-08-30T10:40:27.442Z,38.65
2018-08-30T10:42:57.426Z,38.58
2018-08-30T10:45:27.878Z,37.90
2018-08-30T10:47:57.592Z,36.35
2018-08-30T10:50:27.683Z,36.46
2018-08-30T10:52:57.472Z,35.95
2018-08-30T10:55:27.569Z,36.47
2018-08-30T10:57:57.684Z,36.13
2018-08-30T11:00:27.966Z,36.30
2018-08-30T11:02:59.068Z,35.98
2018-08-30T11:05:29.880Z,35.97
2018-08-30T11:08:00.817Z,35.51
2018-08-30T11:10:31.784Z,35.92
2018-08-30T11:13:02.934Z,35.58
2018-08-30T11:15:33.666Z,35.08
2018-08-30T11:18:04.829Z,34.63
2018-08-30T11:20:35.620Z,34.43
2018-08-30T11:23:06.972Z,34.58
2018-08-30T11:25:37.911Z,33.63
2018-08-30T11:28:08.856Z,34.16
2018-08-30T11:30:39.572Z,33.83
2018-08-30T11:33:10.601Z,33.32
2018-08-30T11:35:41.506Z,33.73
2018-08-30T11:38:13.072Z,34.27
2018-08-30T11:40:44.089Z,34.08
2018-08-30T11:43:16.419Z,33.63
2018-08-30T11:45:46.645Z,32.86
2018-08-30T11:48:16.576Z,33.73
2018-08-30T11:50:47.444Z,33.79
2018-08-30T11:53:18.758Z,33.56
2018-08-30T11:55:49.761Z,33.60
2018-08-30T11:58:20.730Z,34.16
2018-08-30T12:00:51.794Z,34.40
2018-08-30T12:03:23.578Z,35.07
2018-08-30T12:05:54.835Z,34.38
2018-08-30T12:08:25.073Z,34.68
2018-08-30T12:10:56.506Z,34.96
2018-08-30T12:13:26.696Z,35.02
2018-08-30T12:15:57.679Z,34.57
2018-08-30T12:18:28.609Z,34.66
2018-08-30T12:20:59.760Z,35.45
2018-08-30T12:23:30.650Z,35.27
2018-08-30T12:26:01.725Z,35.17
2018-08-30T12:28:32.650Z,34.44
2018-08-30T12:31:03.836Z,35.14
2018-08-30T12:33:34.985Z,35.30
2018-08-30T12:36:06.163Z,35.07
2018-08-30T12:38:36.666Z,34.66
2018-08-30T12:41:08.119Z,35.18
2018-08-30T12:43:39.064Z,35.19
2018-08-30T12:46:10.035Z,35.45
2018-08-30T12:48:41.112Z,35.75
2018-08-30T12:51:12.273Z,35.79
2018-08-30T12:53:42.859Z,36.12
2018-08-30T12:56:14.195Z,36.59
2018-08-30T12:58:45.253Z,36.96
2018-08-30T13:01:16.078Z,39.82
2018-08-30T13:03:46.869Z,42.37
2018-08-30T13:06:17.999Z,42.69
2018-08-30T13:08:49.016Z,46.42
2018-08-30T13:11:21.103Z,48.05
2018-08-30T13:13:51.127Z,49.41
2018-08-30T13:16:25.970Z,49.82
2018-08-30T13:18:56.149Z,50.54
2018-08-30T13:21:26.236Z,50.89
2018-08-30T13:23:56.908Z,50.65
2018-08-30T13:26:26.923Z,50.92
2018-08-30T13:28:57.401Z,51.15
2018-08-30T13:31:27.395Z,50.99
2018-08-30T13:33:58.529Z,51.40
2018-08-30T13:36:29.139Z,53.11
2018-08-30T13:39:00.706Z,53.51
2018-08-30T13:41:31.329Z,54.85
2018-08-30T13:44:02.244Z,55.38
2018-08-30T13:46:33.070Z,56.75
2018-08-30T13:49:04.681Z,57.21
2018-08-30T13:51:35.529Z,57.95
2018-08-30T13:54:06.420Z,57.95
2018-08-30T13:56:37.274Z,57.96
2018-08-30T13:59:08.658Z,57.46
2018-08-30T14:01:39.479Z,56.94
2018-08-30T14:04:10.386Z,56.87
2018-08-30T14:06:41.249Z,58.22
2018-08-30T14:09:12.448Z,58.31
2018-08-30T14:11:43.368Z,57.89
2018-08-30T14:14:14.389Z,58.11
2018-08-30T14:16:44.810Z,58.24
2018-08-30T14:19:16.096Z,58.61
2018-08-30T14:21:46.723Z,58.59
2018-08-30T14:24:16.790Z,60.07
2018-08-30T14:26:47.970Z,59.77
2018-08-30T14:29:19.457Z,60.02
2018-08-30T14:31:50.163Z,60.48
2018-08-30T14:34:21.329Z,61.16
2018-08-30T14:36:51.900Z,61.17
2018-08-30T14:39:23.014Z,63.51
2018-08-30T14:41:53.948Z,62.29
2018-08-30T14:44:25.317Z,63.32
2018-08-30T14:46:57.916Z,62.85
2018-08-30T14:49:28.240Z,63.37
2018-08-30T14:51:58.176Z,63.89
2018-08-30T14:54:29.158Z,63.81
2018-08-30T14:56:59.802Z,66.06
2018-08-30T14:59:31.126Z,67.20
2018-08-30T15:02:01.779Z,67.13
2018-08-30T15:04:32.820Z,66.68
2018-08-30T15:07:03.578Z,66.80
2018-08-30T15:09:35.216Z,68.91
2018-08-30T15:12:05.976Z,68.37
2018-08-30T15:14:36.789Z,68.09
2018-08-30T15:17:07.658Z,68.27
2018-08-30T15:19:38.913Z,68.99
2018-08-30T15:22:12.002Z,69.74
2018-08-30T15:24:42.816Z,70.88
2018-08-30T15:27:12.921Z,71.18
2018-08-30T15:29:44.898Z,71.31
2018-08-30T15:32:14.835Z,71.19
2018-08-30T15:34:44.680Z,72.36
2018-08-30T15:37:14.701Z,72.25
2018-08-30T15:39:45.484Z,73.11
2018-08-30T15:42:17.095Z,72.72
2018-08-30T15:44:47.692Z,73.49
2018-08-30T15:47:19.005Z,74.75
2018-08-30T15:49:52.113Z,75.03
2018-08-30T15:52:22.652Z,76.34
2018-08-30T15:54:52.376Z,76.95
2018-08-30T15:57:24.109Z,77.64
2018-08-30T15:59:54.105Z,76.91
2018-08-30T16:02:25.195Z,78.58
2018-08-30T16:04:55.766Z,79.32
2018-08-30T16:07:26.993Z,77.56
2018-08-30T16:09:57.848Z,78.03
2018-08-30T16:12:28.964Z,78.47
2018-08-30T16:14:59.767Z,78.33
2018-08-30T16:17:30.840Z,77.46
2018-08-30T16:20:01.631Z,78.95
2018-08-30T16:22:49.882Z,78.36
2018-08-30T16:25:20.144Z,77.58
2018-08-30T16:27:49.978Z,77.88
2018-08-30T16:30:20.828Z,77.91
2018-08-30T16:32:50.916Z,76.93
2018-08-30T16:35:21.362Z,79.05
2018-08-30T16:37:51.276Z,79.16
2018-08-30T16:40:21.929Z,78.54
2018-08-30T16:42:51.925Z,79.31
2018-08-30T16:45:21.961Z,79.17
2018-08-30T16:47:52.689Z,79.40
2018-08-30T16:50:22.462Z,80.04
2018-08-30T16:52:52.546Z,78.50
2018-08-30T16:55:24.376Z,79.71
2018-08-30T16:57:54.336Z,78.43
2018-08-30T17:00:25.100Z,78.76
2018-08-30T17:02:54.946Z,78.73
2018-08-30T17:05:25.902Z,78.28
2018-08-30T17:07:55.725Z,78.36
2018-08-30T17:10:25.970Z,77.35
2018-08-30T17:12:55.774Z,77.00
2018-08-30T17:15:25.718Z,78.20
2018-08-30T17:17:56.001Z,77.42
2018-08-30T17:20:29.793Z,76.05
2018-08-30T17:22:59.777Z,76.76
2018-08-30T17:25:29.812Z,77.14
2018-08-30T17:28:00.444Z,76.46
2018-08-30T17:30:30.332Z,76.50
2018-08-30T17:33:00.956Z,77.67
2018-08-30T17:35:32.006Z,78.14
2018-08-30T17:38:03.281Z,76.54
2018-08-30T17:40:34.116Z,77.43
2018-08-30T17:43:04.828Z,78.70
2018-08-30T17:45:36.282Z,77.55
2018-08-30T17:48:07.233Z,78.68
2018-08-30T17:50:37.470Z,77.82
2018-08-30T17:53:07.732Z,77.82
2018-08-30T17:55:39.552Z,78.08
2018-08-30T17:58:10.029Z,78.19
2018-08-30T18:00:41.449Z,79.17
2018-08-30T18:03:13.290Z,80.50
2018-08-30T18:05:43.733Z,80.05
2018-08-30T18:08:13.751Z,80.40
2018-08-30T18:10:45.267Z,80.09
2018-08-30T18:13:15.949Z,80.40
2018-08-30T18:15:47.085Z,80.45
2018-08-30T18:18:18.009Z,80.61
2018-08-30T18:20:49.071Z,79.66
2018-08-30T18:23:20.174Z,79.87
2018-08-30T18:25:51.229Z,79.57
2018-08-30T18:28:21.822Z,79.94
2018-08-30T18:30:52.981Z,79.39
2018-08-30T18:33:23.881Z,78.90
2018-08-30T18:35:55.271Z,78.37
2018-08-30T18:38:27.462Z,78.57
2018-08-30T18:40:57.682Z,78.68
2018-08-30T18:43:27.979Z,78.55
2018-08-30T18:46:00.368Z,79.19
2018-08-30T18:48:30.742Z,78.71
2018-08-30T18:51:00.818Z,79.75
2018-08-30T18:53:32.781Z,79.10
2018-08-30T18:56:03.004Z,78.87
2018-08-30T18:58:33.945Z,78.72
2018-08-30T19:01:05.227Z,79.42
2018-08-30T19:03:35.951Z,78.33
2018-08-30T19:06:07.060Z,78.39
2018-08-30T19:08:37.962Z,78.80
2018-08-30T19:11:09.370Z,78.26
2018-08-30T19:13:40.115Z,79.51
2018-08-30T19:16:16.143Z,79.38
2018-08-30T19:18:51.171Z,79.35
2018-08-30T19:21:21.405Z,79.21
2018-08-30T19:23:51.474Z,79.53
2018-08-30T19:26:21.645Z,79.31
2018-08-30T19:28:52.182Z,79.57
2018-08-30T19:31:22.115Z,79.13
2018-08-30T19:33:53.071Z,79.14
2018-08-30T19:36:33.395Z,78.56
2018-08-30T19:39:05.448Z,78.68
2018-08-30T19:41:35.638Z,78.68
2018-08-30T19:44:05.930Z,78.65
2018-08-30T19:46:36.400Z,78.73
2018-08-30T19:49:07.026Z,78.40
2018-08-30T19:51:37.508Z,78.70
2018-08-30T19:54:07.693Z,79.37
2018-08-30T19:56:37.825Z,79.00
2018-08-30T19:59:07.963Z,79.29
2018-08-30T20:01:37.794Z,79.53
2018-08-30T20:04:07.794Z,78.50
2018-08-30T20:06:37.901Z,79.56
2018-08-30T20:09:08.201Z,78.72
2018-08-30T20:11:38.603Z,79.23
2018-08-30T20:14:08.465Z,78.76
2018-08-30T20:16:38.426Z,78.41
2018-08-30T20:19:08.504Z,78.17
2018-08-30T20:21:38.362Z,77.92
2018-08-30T20:24:08.962Z,78.09
2018-08-30T20:26:38.872Z,78.11
2018-08-30T20:29:08.945Z,78.10
2018-08-30T20:31:40.843Z,77.39
2018-08-30T20:34:11.705Z,77.59
2018-08-30T20:36:41.741Z,77.67
2018-08-30T20:39:11.740Z,77.35
2018-08-30T20:41:43.299Z,77.64
2018-08-30T20:44:14.189Z,77.66
2018-08-30T20:46:45.519Z,77.88
2018-08-30T20:49:15.675Z,78.00
2018-08-30T20:51:46.951Z,78.48
2018-08-30T20:54:17.746Z,78.20
2018-08-30T20:56:49.142Z,77.41
2018-08-30T20:59:23.032Z,77.59
2018-08-30T21:01:53.127Z,77.41
2018-08-30T21:04:23.606Z,77.72
2018-08-30T21:06:53.656Z,77.41
2018-08-30T21:09:23.731Z,77.52
2018-08-30T21:11:54.960Z,77.64
2018-08-30T21:14:25.996Z,77.55
2018-08-30T21:16:57.101Z,77.55
2018-08-30T21:19:28.179Z,77.37
2018-08-30T21:21:59.328Z,77.34
2018-08-30T21:24:30.044Z,77.49
2018-08-30T21:27:01.061Z,77.39
2018-08-30T21:29:31.722Z,77.87
2018-08-30T21:32:03.420Z,77.01
2018-08-30T21:34:34.059Z,77.43
2018-08-30T21:37:05.118Z,76.85
2018-08-30T21:39:35.726Z,77.76
2018-08-30T21:42:06.846Z,77.36
2018-08-30T21:44:37.673Z,77.58
2018-08-30T21:47:09.137Z,77.57
2018-08-30T21:49:39.878Z,77.14
2018-08-30T21:52:11.104Z,77.50
2018-08-30T21:54:41.805Z,77.04
2018-08-30T21:57:13.117Z,76.95
2018-08-30T21:59:43.812Z,77.04
2018-08-30T22:02:15.865Z,77.58
2018-08-30T22:04:45.691Z,77.19
2018-08-30T22:07:16.781Z,77.10
2018-08-30T22:09:47.958Z,77.64
2018-08-30T22:12:19.017Z,77.51
2018-08-30T22:14:49.721Z,76.60
2018-08-30T22:17:20.715Z,76.56
2018-08-30T22:19:51.519Z,76.90
2018-08-30T22:22:22.999Z,76.46
2018-08-30T22:24:53.711Z,76.58
2018-08-30T22:27:24.710Z,76.86
2018-08-30T22:29:55.573Z,76.48
2018-08-30T22:32:26.990Z,76.36
2018-08-30T22:34:57.763Z,76.24
2018-08-30T22:37:28.795Z,76.81
2018-08-30T22:39:59.890Z,76.47
2018-08-30T22:42:30.958Z,76.65
2018-08-30T22:45:02.213Z,76.77
2018-08-30T22:47:33.243Z,77.25
2018-08-30T22:50:04.069Z,76.76
2018-08-30T22:52:35.132Z,77.03
2018-08-30T22:55:05.812Z,77.03
2018-08-30T22:57:36.985Z,76.41
2018-08-30T23:00:07.768Z,76.01
2018-08-30T23:02:38.737Z,75.87
2018-08-30T23:05:09.546Z,76.09
2018-08-30T23:07:40.840Z,75.83
2018-08-30T23:10:11.721Z,76.03
2018-08-30T23:12:42.558Z,75.48
2018-08-30T23:15:13.887Z,75.25
2018-08-30T23:17:44.688Z,75.22
2018-08-30T23:20:15.565Z,75.41
2018-08-30T23:22:46.550Z,75.42
2018-08-30T23:25:16.496Z,75.29
2018-08-30T23:27:47.828Z,75.41
2018-08-30T23:30:18.879Z,75.79
2018-08-30T23:32:50.788Z,75.78
2018-08-30T23:35:20.761Z,75.86
2018-08-30T23:37:56.129Z,75.64
2018-08-30T23:40:26.709Z,75.16
2018-08-30T23:42:56.591Z,75.30
2018-08-30T23:45:27.454Z,75.16
2018-08-30T23:47:57.360Z,75.09
2018-08-30T23:50:27.241Z,74.88
2018-08-30T23:52:57.923Z,74.87
2018-08-30T23:55:28.817Z,74.90
2018-08-30T23:58:10.334Z,75.17
